Strona główna
METAR-TAF:

METAR-TAF

Lotnisko :

Port lotniczy Teesside

Durham, Anglia

Szerokość geograficzna: 54-31N, Długość geograficzna: 001-25W, wysokość: 37 m

Aktualna obserwacja pogody

Raport powstał 39 minut temu, godzina 15:20 UTC
Wiatr 6 kt od zachodnio-południowy zachód
Temperatura 7°C
Wilgotność 76%
Ciśnienie 1012 hPa
Widzialność 10 km lub więcej
Mało chmury na wysokości 4000 ft

METAR: EGNV 251520Z 24006KT 9999 FEW040 07/03 Q1012

czas: 15:59 (15:59 UTC)

Prognoza

Raport powstał 2 godziny i 5 minut temu, godzina 13:54 UTC
Prognoza ważna od 25 godzina 15 UTC do 25 godzina 21 UTC
Wiatr 5 kt od zachodnio-południowy zachód
Widzialność 10 km lub więcej
Rozproszone chmury na wysokości 2500 ft
Przejściowo
od 25 godzina 20 UTC do 25 godzina 21 UTC
Widzialność: 7000 m

TAF: EGNV 251354Z 2515/2521 24005KT 9999 SCT025 TEMPO 2520/2521 7000

Obserwacja i prognoza pogody dla ponad 4000 lotnisk (raport METAR i TAF).

Dostępne stacje oznaczono żółtymi i czerwonymi punktami na mapie.

Najedź kursorem aby zobaczyć nazwę stacji.

Kliknij aby zobaczyć obserwacje i prognozy pogody.

Aby zmienić mapę: kliknij na zielony przycisk z czarnym krzyżykiem, aby powiększyć; na zielony przycisk z myślnikiem, aby pomniejszyć; na zielone strzałki, aby przejść do map sąsiednich.


METAR-TAF: